sensor_id;sensor_type;location;lat;lon;timestamp;temperature;humidity
2407;DHT22;37709;53.480;9.688;2023-03-01T00:01:14;-3.60;99.90
2407;DHT22;37709;53.480;9.688;2023-03-01T00:03:43;-3.40;99.90
2407;DHT22;37709;53.480;9.688;2023-03-01T00:06:10;-3.40;99.90
2407;DHT22;37709;53.480;9.688;2023-03-01T00:08:38;-3.40;99.90
2407;DHT22;37709;53.480;9.688;2023-03-01T00:11:17;-3.40;99.90
2407;DHT22;37709;53.480;9.688;2023-03-01T00:13:46;-3.50;99.90
2407;DHT22;37709;53.480;9.688;2023-03-01T00:16:20;-3.50;99.90
2407;DHT22;37709;53.480;9.688;2023-03-01T00:18:47;-3.50;99.90
2407;DHT22;37709;53.480;9.688;2023-03-01T00:21:15;-3.40;99.90
2407;DHT22;37709;53.480;9.688;2023-03-01T00:23:42;-3.40;99.90
2407;DHT22;37709;53.480;9.688;2023-03-01T00:26:12;-3.50;99.90
2407;DHT22;37709;53.480;9.688;2023-03-01T00:28:42;-3.60;99.90
2407;DHT22;37709;53.480;9.688;2023-03-01T00:31:15;-3.70;99.90
2407;DHT22;37709;53.480;9.688;2023-03-01T00:33:44;-3.80;99.90
2407;DHT22;37709;53.480;9.688;2023-03-01T00:36:13;-3.80;99.90
2407;DHT22;37709;53.480;9.688;2023-03-01T00:38:44;-3.70;99.90
2407;DHT22;37709;53.480;9.688;2023-03-01T00:41:14;-3.50;99.90
2407;DHT22;37709;53.480;9.688;2023-03-01T00:43:42;-3.30;99.90
2407;DHT22;37709;53.480;9.688;2023-03-01T00:46:12;-3.30;99.90
2407;DHT22;37709;53.480;9.688;2023-03-01T00:48:40;-3.20;99.90
2407;DHT22;37709;53.480;9.688;2023-03-01T00:51:13;-3.30;99.90
2407;DHT22;37709;53.480;9.688;2023-03-01T00:53:41;-3.50;99.90
2407;DHT22;37709;53.480;9.688;2023-03-01T00:56:10;-3.60;99.90
2407;DHT22;37709;53.480;9.688;2023-03-01T00:58:38;-3.70;99.90
2407;DHT22;37709;53.480;9.688;2023-03-01T01:01:18;-3.70;99.90
2407;DHT22;37709;53.480;9.688;2023-03-01T01:03:48;-3.80;99.90
2407;DHT22;37709;53.480;9.688;2023-03-01T01:06:28;-3.60;99.90
2407;DHT22;37709;53.480;9.688;2023-03-01T01:08:58;-3.50;99.90
2407;DHT22;37709;53.480;9.688;2023-03-01T01:11:27;-3.50;99.90
2407;DHT22;37709;53.480;9.688;2023-03-01T01:13:56;-3.50;99.90
2407;DHT22;37709;53.480;9.688;2023-03-01T01:16:25;-3.60;99.90
2407;DHT22;37709;53.480;9.688;2023-03-01T01:18:53;-3.80;99.90
2407;DHT22;37709;53.480;9.688;2023-03-01T01:21:22;-3.90;99.90
2407;DHT22;37709;53.480;9.688;2023-03-01T01:23:50;-3.80;99.90
2407;DHT22;37709;53.480;9.688;2023-03-01T01:26:21;-3.80;99.90
2407;DHT22;37709;53.480;9.688;2023-03-01T01:28:50;-3.60;99.90
2407;DHT22;37709;53.480;9.688;2023-03-01T01:31:18;-3.60;99.90
2407;DHT22;37709;53.480;9.688;2023-03-01T01:33:45;-3.70;99.90
2407;DHT22;37709;53.480;9.688;2023-03-01T01:36:13;-3.80;99.90
2407;DHT22;37709;53.480;9.688;2023-03-01T01:38:41;-4.00;99.90
2407;DHT22;37709;53.480;9.688;2023-03-01T01:41:11;-4.00;99.90
2407;DHT22;37709;53.480;9.688;2023-03-01T01:43:41;-3.80;99.90
2407;DHT22;37709;53.480;9.688;2023-03-01T01:46:25;-3.60;99.90
2407;DHT22;37709;53.480;9.688;2023-03-01T01:49:00;-3.50;99.90
2407;DHT22;37709;53.480;9.688;2023-03-01T01:51:32;-3.50;99.90
2407;DHT22;37709;53.480;9.688;2023-03-01T01:54:20;-3.40;99.90
2407;DHT22;37709;53.480;9.688;2023-03-01T01:56:52;-3.40;99.90
2407;DHT22;37709;53.480;9.688;2023-03-01T01:59:20;-3.40;99.90
2407;DHT22;37709;53.480;9.688;2023-03-01T02:01:52;-3.40;99.90
2407;DHT22;37709;53.480;9.688;2023-03-01T02:04:20;-3.40;99.90
2407;DHT22;37709;53.480;9.688;2023-03-01T02:06:59;-3.40;99.90
2407;DHT22;37709;53.480;9.688;2023-03-01T02:09:28;-3.40;99.90
2407;DHT22;37709;53.480;9.688;2023-03-01T02:11:57;-3.30;99.90
2407;DHT22;37709;53.480;9.688;2023-03-01T02:14:25;-3.20;99.90
2407;DHT22;37709;53.480;9.688;2023-03-01T02:16:53;-3.20;99.90
2407;DHT22;37709;53.480;9.688;2023-03-01T02:22:13;-3.30;99.90
2407;DHT22;37709;53.480;9.688;2023-03-01T02:30:48;-3.40;99.90
2407;DHT22;37709;53.480;9.688;2023-03-01T02:33:38;-3.40;99.90
2407;DHT22;37709;53.480;9.688;2023-03-01T02:36:16;-3.40;99.90
2407;DHT22;37709;53.480;9.688;2023-03-01T02:38:47;-3.40;99.90
2407;DHT22;37709;53.480;9.688;2023-03-01T02:41:16;-3.30;99.90
2407;DHT22;37709;53.480;9.688;2023-03-01T02:43:45;-3.30;99.90
2407;DHT22;37709;53.480;9.688;2023-03-01T02:46:16;-3.30;99.90
2407;DHT22;37709;53.480;9.688;2023-03-01T02:48:47;-3.30;99.90
2407;DHT22;37709;53.480;9.688;2023-03-01T02:54:08;-3.40;99.90
2407;DHT22;37709;53.480;9.688;2023-03-01T02:56:37;-3.40;99.90
2407;DHT22;37709;53.480;9.688;2023-03-01T02:59:05;-3.60;99.90
2407;DHT22;37709;53.480;9.688;2023-03-01T03:01:33;-3.50;99.90
2407;DHT22;37709;53.480;9.688;2023-03-01T03:04:09;-3.50;99.90
2407;DHT22;37709;53.480;9.688;2023-03-01T03:06:37;-3.40;99.90
2407;DHT22;37709;53.480;9.688;2023-03-01T03:09:05;-3.30;99.90
2407;DHT22;37709;53.480;9.688;2023-03-01T03:11:32;-3.30;99.90
2407;DHT22;37709;53.480;9.688;2023-03-01T03:14:00;-3.20;99.90
2407;DHT22;37709;53.480;9.688;2023-03-01T03:16:28;-3.30;99.90
2407;DHT22;37709;53.480;9.688;2023-03-01T03:18:57;-3.40;99.90
2407;DHT22;37709;53.480;9.688;2023-03-01T03:21:32;-3.40;99.90
2407;DHT22;37709;53.480;9.688;2023-03-01T03:24:00;-3.50;99.90
2407;DHT22;37709;53.480;9.688;2023-03-01T03:26:28;-3.40;99.90
2407;DHT22;37709;53.480;9.688;2023-03-01T03:28:56;-3.40;99.90
2407;DHT22;37709;53.480;9.688;2023-03-01T03:31:24;-3.40;99.90
2407;DHT22;37709;53.480;9.688;2023-03-01T03:33:51;-3.40;99.90
2407;DHT22;37709;53.480;9.688;2023-03-01T03:36:21;-3.40;99.90
2407;DHT22;37709;53.480;9.688;2023-03-01T03:38:48;-3.50;99.90
2407;DHT22;37709;53.480;9.688;2023-03-01T03:41:16;-3.70;99.90
2407;DHT22;37709;53.480;9.688;2023-03-01T03:43:44;-3.70;99.90
2407;DHT22;37709;53.480;9.688;2023-03-01T03:46:12;-3.80;99.90
2407;DHT22;37709;53.480;9.688;2023-03-01T03:48:41;-3.80;99.90
2407;DHT22;37709;53.480;9.688;2023-03-01T03:51:16;-3.80;99.90
2407;DHT22;37709;53.480;9.688;2023-03-01T03:53:44;-3.70;99.90
2407;DHT22;37709;53.480;9.688;2023-03-01T03:56:12;-3.60;99.90
2407;DHT22;37709;53.480;9.688;2023-03-01T03:58:39;-3.50;99.90
2407;DHT22;37709;53.480;9.688;2023-03-01T04:01:07;-3.50;99.90
2407;DHT22;37709;53.480;9.688;2023-03-01T04:03:34;-3.50;99.90
2407;DHT22;37709;53.480;9.688;2023-03-01T04:06:03;-3.50;99.90
2407;DHT22;37709;53.480;9.688;2023-03-01T04:08:31;-3.60;99.90
2407;DHT22;37709;53.480;9.688;2023-03-01T04:11:03;-3.70;99.90
2407;DHT22;37709;53.480;9.688;2023-03-01T04:13:55;-3.60;99.90
2407;DHT22;37709;53.480;9.688;2023-03-01T04:16:23;-3.50;99.90
2407;DHT22;37709;53.480;9.688;2023-03-01T04:18:51;-3.40;99.90
2407;DHT22;37709;53.480;9.688;2023-03-01T04:21:20;-3.20;99.90
2407;DHT22;37709;53.480;9.688;2023-03-01T04:23:48;-3.00;99.90
2407;DHT22;37709;53.480;9.688;2023-03-01T04:26:15;-2.90;99.90
2407;DHT22;37709;53.480;9.688;2023-03-01T04:28:42;-2.70;99.90
2407;DHT22;37709;53.480;9.688;2023-03-01T04:31:14;-2.60;99.90
2407;DHT22;37709;53.480;9.688;2023-03-01T04:33:50;-2.60;99.90
2407;DHT22;37709;53.480;9.688;2023-03-01T04:36:23;-2.40;99.90
2407;DHT22;37709;53.480;9.688;2023-03-01T04:38:51;-2.30;99.90
2407;DHT22;37709;53.480;9.688;2023-03-01T04:41:20;-2.30;99.90
2407;DHT22;37709;53.480;9.688;2023-03-01T04:43:47;-2.10;99.90
2407;DHT22;37709;53.480;9.688;2023-03-01T04:46:18;-2.10;99.90
2407;DHT22;37709;53.480;9.688;2023-03-01T04:48:46;-2.00;99.90
2407;DHT22;37709;53.480;9.688;2023-03-01T04:51:14;-2.00;99.90
2407;DHT22;37709;53.480;9.688;2023-03-01T04:53:43;-1.90;99.90
2407;DHT22;37709;53.480;9.688;2023-03-01T04:56:11;-1.80;99.90
2407;DHT22;37709;53.480;9.688;2023-03-01T04:58:38;-1.80;99.90
2407;DHT22;37709;53.480;9.688;2023-03-01T05:01:14;-1.80;99.90
2407;DHT22;37709;53.480;9.688;2023-03-01T05:03:44;-1.80;99.90
2407;DHT22;37709;53.480;9.688;2023-03-01T05:06:11;-1.70;99.90
2407;DHT22;37709;53.480;9.688;2023-03-01T05:08:40;-1.60;99.90
2407;DHT22;37709;53.480;9.688;2023-03-01T05:11:08;-1.50;99.90
2407;DHT22;37709;53.480;9.688;2023-03-01T05:13:37;-1.50;99.90
2407;DHT22;37709;53.480;9.688;2023-03-01T05:16:06;-1.50;99.90
2407;DHT22;37709;53.480;9.688;2023-03-01T05:18:34;-1.50;99.90
2407;DHT22;37709;53.480;9.688;2023-03-01T05:21:11;-1.40;99.90
2407;DHT22;37709;53.480;9.688;2023-03-01T05:23:39;-1.40;99.90
2407;DHT22;37709;53.480;9.688;2023-03-01T05:26:06;-1.30;99.90
2407;DHT22;37709;53.480;9.688;2023-03-01T05:28:52;-1.40;99.90
2407;DHT22;37709;53.480;9.688;2023-03-01T05:31:19;-1.40;99.90
2407;DHT22;37709;53.480;9.688;2023-03-01T05:33:47;-1.30;99.90
2407;DHT22;37709;53.480;9.688;2023-03-01T05:36:14;-1.30;99.90
2407;DHT22;37709;53.480;9.688;2023-03-01T05:38:41;-1.30;99.90
2407;DHT22;37709;53.480;9.688;2023-03-01T05:41:14;-1.30;99.90
2407;DHT22;37709;53.480;9.688;2023-03-01T05:43:43;-1.40;99.90
2407;DHT22;37709;53.480;9.688;2023-03-01T05:46:12;-1.30;99.90
2407;DHT22;37709;53.480;9.688;2023-03-01T05:48:40;-1.30;99.90
2407;DHT22;37709;53.480;9.688;2023-03-01T05:51:08;-1.30;99.90
2407;DHT22;37709;53.480;9.688;2023-03-01T05:53:35;-1.30;99.90
2407;DHT22;37709;53.480;9.688;2023-03-01T05:56:04;-1.20;99.90
2407;DHT22;37709;53.480;9.688;2023-03-01T05:58:31;-1.20;99.90
2407;DHT22;37709;53.480;9.688;2023-03-01T06:00:59;-1.10;99.90
2407;DHT22;37709;53.480;9.688;2023-03-01T06:03:26;-1.00;99.90
2407;DHT22;37709;53.480;9.688;2023-03-01T06:05:57;-1.00;99.90
2407;DHT22;37709;53.480;9.688;2023-03-01T06:08:25;-1.00;99.90
2407;DHT22;37709;53.480;9.688;2023-03-01T06:10:54;-1.00;99.90
2407;DHT22;37709;53.480;9.688;2023-03-01T06:13:22;-1.00;99.90
2407;DHT22;37709;53.480;9.688;2023-03-01T06:15:50;-1.00;99.90
2407;DHT22;37709;53.480;9.688;2023-03-01T06:18:18;-1.00;99.90
2407;DHT22;37709;53.480;9.688;2023-03-01T06:20:53;-0.90;99.90
2407;DHT22;37709;53.480;9.688;2023-03-01T06:23:22;-0.90;99.90
2407;DHT22;37709;53.480;9.688;2023-03-01T06:25:49;-0.90;99.90
2407;DHT22;37709;53.480;9.688;2023-03-01T06:28:17;-0.90;99.90
2407;DHT22;37709;53.480;9.688;2023-03-01T06:30:44;-0.80;99.90
2407;DHT22;37709;53.480;9.688;2023-03-01T06:33:11;-0.80;99.90
2407;DHT22;37709;53.480;9.688;2023-03-01T06:35:39;-0.70;99.90
2407;DHT22;37709;53.480;9.688;2023-03-01T06:38:06;-0.70;99.90
2407;DHT22;37709;53.480;9.688;2023-03-01T06:40:34;-0.60;99.90
2407;DHT22;37709;53.480;9.688;2023-03-01T06:43:02;-0.50;99.90
2407;DHT22;37709;53.480;9.688;2023-03-01T06:45:29;-0.50;99.90
2407;DHT22;37709;53.480;9.688;2023-03-01T06:48:04;-0.40;99.90
2407;DHT22;37709;53.480;9.688;2023-03-01T06:50:32;-0.40;99.90
2407;DHT22;37709;53.480;9.688;2023-03-01T06:53:03;-0.30;99.90
2407;DHT22;37709;53.480;9.688;2023-03-01T06:55:32;-0.30;99.90
2407;DHT22;37709;53.480;9.688;2023-03-01T06:58:00;-0.20;99.90
2407;DHT22;37709;53.480;9.688;2023-03-01T07:00:28;-0.10;99.90
2407;DHT22;37709;53.480;9.688;2023-03-01T07:02:59;-0.10;99.90
2407;DHT22;37709;53.480;9.688;2023-03-01T07:05:26;0.00;99.90
2407;DHT22;37709;53.480;9.688;2023-03-01T07:07:53;0.10;99.90
2407;DHT22;37709;53.480;9.688;2023-03-01T07:10:22;0.20;99.90
2407;DHT22;37709;53.480;9.688;2023-03-01T07:12:49;0.20;99.90
2407;DHT22;37709;53.480;9.688;2023-03-01T07:15:17;0.30;99.90
2407;DHT22;37709;53.480;9.688;2023-03-01T07:17:44;0.40;99.90
2407;DHT22;37709;53.480;9.688;2023-03-01T07:20:11;0.40;99.90
2407;DHT22;37709;53.480;9.688;2023-03-01T07:22:42;0.40;99.90
2407;DHT22;37709;53.480;9.688;2023-03-01T07:25:10;0.30;99.90
2407;DHT22;37709;53.480;9.688;2023-03-01T07:27:38;0.30;99.90
2407;DHT22;37709;53.480;9.688;2023-03-01T07:30:06;0.30;99.90
2407;DHT22;37709;53.480;9.688;2023-03-01T07:32:33;0.40;99.90
2407;DHT22;37709;53.480;9.688;2023-03-01T07:35:01;0.50;99.90
2407;DHT22;37709;53.480;9.688;2023-03-01T07:37:29;0.70;99.90
2407;DHT22;37709;53.480;9.688;2023-03-01T07:39:57;0.80;99.90
2407;DHT22;37709;53.480;9.688;2023-03-01T07:42:24;0.90;99.90
2407;DHT22;37709;53.480;9.688;2023-03-01T07:44:53;1.00;99.90
2407;DHT22;37709;53.480;9.688;2023-03-01T07:47:20;1.00;99.90
2407;DHT22;37709;53.480;9.688;2023-03-01T07:49:47;1.00;99.90
2407;DHT22;37709;53.480;9.688;2023-03-01T07:52:14;0.90;99.90
2407;DHT22;37709;53.480;9.688;2023-03-01T07:54:43;0.90;99.90
2407;DHT22;37709;53.480;9.688;2023-03-01T07:57:11;1.10;99.90
2407;DHT22;37709;53.480;9.688;2023-03-01T07:59:38;1.20;99.90
2407;DHT22;37709;53.480;9.688;2023-03-01T08:02:06;1.50;99.90
2407;DHT22;37709;53.480;9.688;2023-03-01T08:04:34;1.60;99.90
2407;DHT22;37709;53.480;9.688;2023-03-01T08:07:05;1.70;99.90
2407;DHT22;37709;53.480;9.688;2023-03-01T08:09:35;1.70;99.90
2407;DHT22;37709;53.480;9.688;2023-03-01T08:12:04;1.90;99.90
2407;DHT22;37709;53.480;9.688;2023-03-01T08:14:32;2.00;99.90
2407;DHT22;37709;53.480;9.688;2023-03-01T08:17:00;2.10;99.90
2407;DHT22;37709;53.480;9.688;2023-03-01T08:19:30;2.30;99.90
2407;DHT22;37709;53.480;9.688;2023-03-01T08:21:57;2.50;99.90
2407;DHT22;37709;53.480;9.688;2023-03-01T08:24:25;2.60;99.90
2407;DHT22;37709;53.480;9.688;2023-03-01T08:26:52;2.70;99.90
2407;DHT22;37709;53.480;9.688;2023-03-01T08:29:20;2.80;99.90
2407;DHT22;37709;53.480;9.688;2023-03-01T08:31:48;3.00;99.90
2407;DHT22;37709;53.480;9.688;2023-03-01T08:34:17;3.30;99.90
2407;DHT22;37709;53.480;9.688;2023-03-01T08:36:45;3.40;99.90
2407;DHT22;37709;53.480;9.688;2023-03-01T08:39:15;3.70;99.90
2407;DHT22;37709;53.480;9.688;2023-03-01T08:41:43;4.10;99.90
2407;DHT22;37709;53.480;9.688;2023-03-01T08:44:14;4.50;99.90
2407;DHT22;37709;53.480;9.688;2023-03-01T08:46:44;5.30;99.90
2407;DHT22;37709;53.480;9.688;2023-03-01T08:49:14;5.20;99.90
2407;DHT22;37709;53.480;9.688;2023-03-01T08:51:44;4.80;99.90
2407;DHT22;37709;53.480;9.688;2023-03-01T08:54:14;4.40;99.90
2407;DHT22;37709;53.480;9.688;2023-03-01T08:56:42;4.30;99.90
2407;DHT22;37709;53.480;9.688;2023-03-01T08:59:11;4.50;99.90
2407;DHT22;37709;53.480;9.688;2023-03-01T09:01:38;4.60;99.90
2407;DHT22;37709;53.480;9.688;2023-03-01T09:04:07;4.70;99.90
2407;DHT22;37709;53.480;9.688;2023-03-01T09:06:34;5.00;99.90
2407;DHT22;37709;53.480;9.688;2023-03-01T09:09:02;5.70;99.90
2407;DHT22;37709;53.480;9.688;2023-03-01T09:11:31;7.50;99.90
2407;DHT22;37709;53.480;9.688;2023-03-01T09:13:58;9.90;99.90
2407;DHT22;37709;53.480;9.688;2023-03-01T09:16:25;11.40;97.10
2407;DHT22;37709;53.480;9.688;2023-03-01T09:18:54;12.70;94.70
2407;DHT22;37709;53.480;9.688;2023-03-01T09:21:23;13.70;91.30
2407;DHT22;37709;53.480;9.688;2023-03-01T09:24:13;14.40;90.00
2407;DHT22;37709;53.480;9.688;2023-03-01T09:26:41;15.10;85.80
2407;DHT22;37709;53.480;9.688;2023-03-01T09:29:08;15.60;83.20
2407;DHT22;37709;53.480;9.688;2023-03-01T09:31:37;15.90;81.60
2407;DHT22;37709;53.480;9.688;2023-03-01T09:34:04;16.50;80.20
2407;DHT22;37709;53.480;9.688;2023-03-01T09:36:32;17.00;77.50
2407;DHT22;37709;53.480;9.688;2023-03-01T09:39:00;17.20;75.50
2407;DHT22;37709;53.480;9.688;2023-03-01T09:41:52;17.50;73.90
2407;DHT22;37709;53.480;9.688;2023-03-01T09:44:46;17.50;71.20
2407;DHT22;37709;53.480;9.688;2023-03-01T09:47:19;18.00;79.30
2407;DHT22;37709;53.480;9.688;2023-03-01T09:50:09;18.40;68.70
2407;DHT22;37709;53.480;9.688;2023-03-01T09:53:01;19.00;68.20
2407;DHT22;37709;53.480;9.688;2023-03-01T10:00:52;21.70;60.40
2407;DHT22;37709;53.480;9.688;2023-03-01T10:03:27;22.10;58.70
2407;DHT22;37709;53.480;9.688;2023-03-01T10:06:04;22.20;57.40
2407;DHT22;37709;53.480;9.688;2023-03-01T10:08:40;22.70;57.20
2407;DHT22;37709;53.480;9.688;2023-03-01T10:11:19;23.40;55.60
2407;DHT22;37709;53.480;9.688;2023-03-01T10:14:03;23.50;54.90
2407;DHT22;37709;53.480;9.688;2023-03-01T10:16:51;23.70;55.00
2407;DHT22;37709;53.480;9.688;2023-03-01T10:19:40;23.80;53.30
2407;DHT22;37709;53.480;9.688;2023-03-01T10:22:17;22.20;55.80
2407;DHT22;37709;53.480;9.688;2023-03-01T10:24:45;19.80;57.50
2407;DHT22;37709;53.480;9.688;2023-03-01T10:27:22;18.00;61.60
2407;DHT22;37709;53.480;9.688;2023-03-01T10:32:33;16.80;63.80
2407;DHT22;37709;53.480;9.688;2023-03-01T10:35:00;16.60;65.50
2407;DHT22;37709;53.480;9.688;2023-03-01T10:37:28;17.40;65.20
2407;DHT22;37709;53.480;9.688;2023-03-01T10:40:04;17.70;61.70
2407;DHT22;37709;53.480;9.688;2023-03-01T10:42:39;17.10;64.60
2407;DHT22;37709;53.480;9.688;2023-03-01T10:47:46;17.80;63.60
2407;DHT22;37709;53.480;9.688;2023-03-01T10:50:21;18.00;63.10
2407;DHT22;37709;53.480;9.688;2023-03-01T10:52:58;18.10;62.10
2407;DHT22;37709;53.480;9.688;2023-03-01T10:55:36;17.80;61.10
2407;DHT22;37709;53.480;9.688;2023-03-01T10:58:20;19.30;60.80
2407;DHT22;37709;53.480;9.688;2023-03-01T11:03:45;19.20;60.00
2407;DHT22;37709;53.480;9.688;2023-03-01T11:08:45;19.40;59.70
2407;DHT22;37709;53.480;9.688;2023-03-01T11:13:52;18.70;59.80
2407;DHT22;37709;53.480;9.688;2023-03-01T11:19:00;16.90;63.70
2407;DHT22;37709;53.480;9.688;2023-03-01T11:21:31;16.30;65.00
2407;DHT22;37709;53.480;9.688;2023-03-01T11:24:01;15.60;65.80
2407;DHT22;37709;53.480;9.688;2023-03-01T11:26:31;15.20;66.90
2407;DHT22;37709;53.480;9.688;2023-03-01T11:29:05;14.60;68.50
2407;DHT22;37709;53.480;9.688;2023-03-01T11:31:34;14.00;69.20
2407;DHT22;37709;53.480;9.688;2023-03-01T11:34:13;13.50;71.20
2407;DHT22;37709;53.480;9.688;2023-03-01T11:36:46;13.30;73.70
2407;DHT22;37709;53.480;9.688;2023-03-01T11:41:51;13.00;71.90
2407;DHT22;37709;53.480;9.688;2023-03-01T11:44:24;12.90;73.10
2407;DHT22;37709;53.480;9.688;2023-03-01T11:47:09;13.60;72.30
2407;DHT22;37709;53.480;9.688;2023-03-01T11:56:00;14.70;71.90
2407;DHT22;37709;53.480;9.688;2023-03-01T12:01:16;17.90;67.30
2407;DHT22;37709;53.480;9.688;2023-03-01T12:04:13;19.60;61.90
2407;DHT22;37709;53.480;9.688;2023-03-01T12:07:16;20.10;61.30
2407;DHT22;37709;53.480;9.688;2023-03-01T12:13:14;21.70;59.50
2407;DHT22;37709;53.480;9.688;2023-03-01T12:19:07;23.50;56.10
2407;DHT22;37709;53.480;9.688;2023-03-01T12:25:00;23.60;56.00
2407;DHT22;37709;53.480;9.688;2023-03-01T12:27:45;23.60;54.60
2407;DHT22;37709;53.480;9.688;2023-03-01T12:36:30;25.80;54.20
2407;DHT22;37709;53.480;9.688;2023-03-01T12:39:14;26.40;52.80
2407;DHT22;37709;53.480;9.688;2023-03-01T12:44:43;27.10;50.70
2407;DHT22;37709;53.480;9.688;2023-03-01T12:47:26;26.60;50.80
2407;DHT22;37709;53.480;9.688;2023-03-01T12:50:01;26.40;51.00
2407;DHT22;37709;53.480;9.688;2023-03-01T12:52:53;26.60;50.60
2407;DHT22;37709;53.480;9.688;2023-03-01T12:55:36;26.40;51.00
2407;DHT22;37709;53.480;9.688;2023-03-01T12:58:20;26.20;51.30
2407;DHT22;37709;53.480;9.688;2023-03-01T13:01:03;25.90;50.80
2407;DHT22;37709;53.480;9.688;2023-03-01T13:06:21;24.90;50.30
2407;DHT22;37709;53.480;9.688;2023-03-01T13:11:42;24.20;52.70
2407;DHT22;37709;53.480;9.688;2023-03-01T13:16:53;25.10;52.70
2407;DHT22;37709;53.480;9.688;2023-03-01T13:19:26;25.40;51.20
2407;DHT22;37709;53.480;9.688;2023-03-01T13:21:56;25.10;52.10
2407;DHT22;37709;53.480;9.688;2023-03-01T13:24:42;25.40;52.10
2407;DHT22;37709;53.480;9.688;2023-03-01T13:27:11;25.60;51.60
2407;DHT22;37709;53.480;9.688;2023-03-01T13:29:49;25.20;51.80
2407;DHT22;37709;53.480;9.688;2023-03-01T13:32:25;25.30;52.10
2407;DHT22;37709;53.480;9.688;2023-03-01T13:37:44;23.90;51.70
2407;DHT22;37709;53.480;9.688;2023-03-01T13:42:54;23.70;54.90
2407;DHT22;37709;53.480;9.688;2023-03-01T13:45:38;23.20;52.90
2407;DHT22;37709;53.480;9.688;2023-03-01T13:48:20;23.20;54.30
2407;DHT22;37709;53.480;9.688;2023-03-01T13:51:03;23.00;53.50
2407;DHT22;37709;53.480;9.688;2023-03-01T13:53:35;23.20;54.10
2407;DHT22;37709;53.480;9.688;2023-03-01T13:56:11;22.80;54.80
2407;DHT22;37709;53.480;9.688;2023-03-01T13:59:01;22.60;54.90
2407;DHT22;37709;53.480;9.688;2023-03-01T14:01:33;22.30;55.60
2407;DHT22;37709;53.480;9.688;2023-03-01T14:04:03;22.70;55.30
2407;DHT22;37709;53.480;9.688;2023-03-01T14:06:44;22.80;54.80
2407;DHT22;37709;53.480;9.688;2023-03-01T14:09:23;22.90;54.40
2407;DHT22;37709;53.480;9.688;2023-03-01T14:15:35;22.40;55.10
2407;DHT22;37709;53.480;9.688;2023-03-01T14:17:43;21.50;55.90
2407;DHT22;37709;53.480;9.688;2023-03-01T14:20:24;21.00;56.90
2407;DHT22;37709;53.480;9.688;2023-03-01T14:22:58;21.10;56.80
2407;DHT22;37709;53.480;9.688;2023-03-01T14:25:27;20.40;57.10
2407;DHT22;37709;53.480;9.688;2023-03-01T14:28:02;19.50;58.00
2407;DHT22;37709;53.480;9.688;2023-03-01T14:30:42;19.00;59.10
2407;DHT22;37709;53.480;9.688;2023-03-01T14:35:59;17.60;60.70
2407;DHT22;37709;53.480;9.688;2023-03-01T14:38:33;16.80;63.00
2407;DHT22;37709;53.480;9.688;2023-03-01T14:41:10;16.60;64.50
2407;DHT22;37709;53.480;9.688;2023-03-01T14:43:44;16.70;64.50
2407;DHT22;37709;53.480;9.688;2023-03-01T14:49:15;16.90;62.50
2407;DHT22;37709;53.480;9.688;2023-03-01T14:51:57;16.20;64.80
2407;DHT22;37709;53.480;9.688;2023-03-01T14:54:28;16.10;64.40
2407;DHT22;37709;53.480;9.688;2023-03-01T14:57:00;15.70;65.30
2407;DHT22;37709;53.480;9.688;2023-03-01T14:59:28;14.90;66.30
2407;DHT22;37709;53.480;9.688;2023-03-01T15:01:57;14.50;67.90
2407;DHT22;37709;53.480;9.688;2023-03-01T15:04:26;13.90;68.80
2407;DHT22;37709;53.480;9.688;2023-03-01T15:06:55;13.90;70.30
2407;DHT22;37709;53.480;9.688;2023-03-01T15:09:34;13.50;70.30
2407;DHT22;37709;53.480;9.688;2023-03-01T15:12:33;13.10;71.60
2407;DHT22;37709;53.480;9.688;2023-03-01T15:15:20;12.70;72.50
2407;DHT22;37709;53.480;9.688;2023-03-01T15:17:54;12.50;73.80
2407;DHT22;37709;53.480;9.688;2023-03-01T15:20:24;12.80;74.00
2407;DHT22;37709;53.480;9.688;2023-03-01T15:22:54;12.30;74.00
2407;DHT22;37709;53.480;9.688;2023-03-01T15:25:25;12.20;74.70
2407;DHT22;37709;53.480;9.688;2023-03-01T15:27:56;11.70;75.60
2407;DHT22;37709;53.480;9.688;2023-03-01T15:33:17;11.60;77.90
2407;DHT22;37709;53.480;9.688;2023-03-01T15:35:51;11.70;77.90
2407;DHT22;37709;53.480;9.688;2023-03-01T15:38:36;11.80;77.50
2407;DHT22;37709;53.480;9.688;2023-03-01T15:41:28;11.60;77.00
2407;DHT22;37709;53.480;9.688;2023-03-01T15:44:15;10.80;78.20
2407;DHT22;37709;53.480;9.688;2023-03-01T15:46:46;10.00;80.40
2407;DHT22;37709;53.480;9.688;2023-03-01T15:51:59;9.80;83.50
2407;DHT22;37709;53.480;9.688;2023-03-01T15:54:27;9.60;84.00
2407;DHT22;37709;53.480;9.688;2023-03-01T15:56:55;9.40;84.20
2407;DHT22;37709;53.480;9.688;2023-03-01T15:59:22;9.00;86.10
2407;DHT22;37709;53.480;9.688;2023-03-01T16:01:49;8.70;86.60
2407;DHT22;37709;53.480;9.688;2023-03-01T16:04:18;8.20;88.30
2407;DHT22;37709;53.480;9.688;2023-03-01T16:06:51;7.80;90.70
2407;DHT22;37709;53.480;9.688;2023-03-01T16:09:22;7.80;92.50
2407;DHT22;37709;53.480;9.688;2023-03-01T16:11:52;7.50;93.10
2407;DHT22;37709;53.480;9.688;2023-03-01T16:14:19;7.10;94.90
2407;DHT22;37709;53.480;9.688;2023-03-01T16:16:47;6.80;97.30
2407;DHT22;37709;53.480;9.688;2023-03-01T16:19:15;6.40;99.20
2407;DHT22;37709;53.480;9.688;2023-03-01T16:21:43;6.00;99.90
2407;DHT22;37709;53.480;9.688;2023-03-01T16:24:14;5.80;99.90
2407;DHT22;37709;53.480;9.688;2023-03-01T16:26:41;5.60;99.90
2407;DHT22;37709;53.480;9.688;2023-03-01T16:29:09;5.30;99.90
2407;DHT22;37709;53.480;9.688;2023-03-01T16:31:36;5.10;99.90
2407;DHT22;37709;53.480;9.688;2023-03-01T16:34:04;5.00;99.90
2407;DHT22;37709;53.480;9.688;2023-03-01T16:36:31;4.80;99.90
2407;DHT22;37709;53.480;9.688;2023-03-01T16:39:00;4.50;99.90
2407;DHT22;37709;53.480;9.688;2023-03-01T16:41:27;4.40;99.90
2407;DHT22;37709;53.480;9.688;2023-03-01T16:43:55;4.20;99.90
2407;DHT22;37709;53.480;9.688;2023-03-01T16:46:26;4.10;99.90
2407;DHT22;37709;53.480;9.688;2023-03-01T16:48:54;3.90;99.90
2407;DHT22;37709;53.480;9.688;2023-03-01T16:51:22;3.80;99.90
2407;DHT22;37709;53.480;9.688;2023-03-01T16:53:51;3.70;99.90
2407;DHT22;37709;53.480;9.688;2023-03-01T16:56:19;3.50;99.90
2407;DHT22;37709;53.480;9.688;2023-03-01T16:58:48;3.40;99.90
2407;DHT22;37709;53.480;9.688;2023-03-01T17:01:17;3.20;99.90
2407;DHT22;37709;53.480;9.688;2023-03-01T17:03:46;3.00;99.90
2407;DHT22;37709;53.480;9.688;2023-03-01T17:06:16;2.90;99.90
2407;DHT22;37709;53.480;9.688;2023-03-01T17:08:44;2.80;99.90
2407;DHT22;37709;53.480;9.688;2023-03-01T17:11:14;2.70;99.90
2407;DHT22;37709;53.480;9.688;2023-03-01T17:13:42;2.50;99.90
2407;DHT22;37709;53.480;9.688;2023-03-01T17:16:13;2.40;99.90
2407;DHT22;37709;53.480;9.688;2023-03-01T17:18:41;2.30;99.90
2407;DHT22;37709;53.480;9.688;2023-03-01T17:21:09;2.20;99.90
2407;DHT22;37709;53.480;9.688;2023-03-01T17:23:39;2.00;99.90
2407;DHT22;37709;53.480;9.688;2023-03-01T17:26:07;1.90;99.90
2407;DHT22;37709;53.480;9.688;2023-03-01T17:28:36;1.90;99.90
2407;DHT22;37709;53.480;9.688;2023-03-01T17:31:05;1.80;99.90
2407;DHT22;37709;53.480;9.688;2023-03-01T17:33:33;1.70;99.90
2407;DHT22;37709;53.480;9.688;2023-03-01T17:36:01;1.70;99.90
2407;DHT22;37709;53.480;9.688;2023-03-01T17:38:28;1.60;99.90
2407;DHT22;37709;53.480;9.688;2023-03-01T17:40:58;1.50;99.90
2407;DHT22;37709;53.480;9.688;2023-03-01T17:43:26;1.40;99.90
2407;DHT22;37709;53.480;9.688;2023-03-01T17:45:55;1.30;99.90
2407;DHT22;37709;53.480;9.688;2023-03-01T17:48:22;1.20;99.90